sensor_id;sensor_type;location;lat;lon;timestamp;pressure;altitude;pressure_sealevel;temperature;humidity
7962;BME280;4026;43.652;24.906;2023-11-18T00:01:23;98373.84;;;6.53;100.00
7962;BME280;4026;43.652;24.906;2023-11-18T00:03:50;98371.22;;;6.54;100.00
7962;BME280;4026;43.652;24.906;2023-11-18T00:06:18;98371.91;;;6.56;100.00
7962;BME280;4026;43.652;24.906;2023-11-18T00:08:46;98374.22;;;6.60;100.00
7962;BME280;4026;43.652;24.906;2023-11-18T00:11:13;98372.63;;;6.58;100.00
7962;BME280;4026;43.652;24.906;2023-11-18T00:13:40;98384.81;;;6.66;100.00
7962;BME280;4026;43.652;24.906;2023-11-18T00:16:08;98386.63;;;6.64;100.00
7962;BME280;4026;43.652;24.906;2023-11-18T00:18:37;98391.53;;;6.54;100.00
7962;BME280;4026;43.652;24.906;2023-11-18T00:21:05;98393.94;;;6.56;100.00
7962;BME280;4026;43.652;24.906;2023-11-18T00:23:32;98404.03;;;6.57;100.00
7962;BME280;4026;43.652;24.906;2023-11-18T00:26:00;98400.75;;;6.55;100.00
7962;BME280;4026;43.652;24.906;2023-11-18T00:28:27;98403.38;;;6.54;100.00
7962;BME280;4026;43.652;24.906;2023-11-18T00:30:54;98398.19;;;6.43;100.00
7962;BME280;4026;43.652;24.906;2023-11-18T00:33:21;98408.69;;;6.38;100.00
7962;BME280;4026;43.652;24.906;2023-11-18T00:35:48;98404.31;;;6.40;100.00
7962;BME280;4026;43.652;24.906;2023-11-18T00:38:15;98402.47;;;6.42;100.00
7962;BME280;4026;43.652;24.906;2023-11-18T00:40:43;98414.06;;;6.46;100.00
7962;BME280;4026;43.652;24.906;2023-11-18T00:43:11;98415.09;;;6.44;100.00
7962;BME280;4026;43.652;24.906;2023-11-18T00:45:38;98419.56;;;6.40;100.00
7962;BME280;4026;43.652;24.906;2023-11-18T00:48:06;98423.00;;;6.39;100.00
7962;BME280;4026;43.652;24.906;2023-11-18T00:50:33;98417.72;;;6.42;100.00
7962;BME280;4026;43.652;24.906;2023-11-18T00:52:59;98411.53;;;6.46;100.00
7962;BME280;4026;43.652;24.906;2023-11-18T00:55:26;98395.16;;;6.50;100.00
7962;BME280;4026;43.652;24.906;2023-11-18T00:57:53;98396.50;;;6.43;100.00
7962;BME280;4026;43.652;24.906;2023-11-18T01:00:21;98388.69;;;6.46;100.00
7962;BME280;4026;43.652;24.906;2023-11-18T01:02:48;98389.28;;;6.37;100.00
7962;BME280;4026;43.652;24.906;2023-11-18T01:05:16;98396.72;;;6.40;100.00
7962;BME280;4026;43.652;24.906;2023-11-18T01:07:43;98385.09;;;6.36;100.00
7962;BME280;4026;43.652;24.906;2023-11-18T01:10:10;98386.25;;;6.32;100.00
7962;BME280;4026;43.652;24.906;2023-11-18T01:12:39;98383.50;;;6.35;100.00
7962;BME280;4026;43.652;24.906;2023-11-18T01:15:06;98371.59;;;6.35;100.00
7962;BME280;4026;43.652;24.906;2023-11-18T01:17:37;98370.38;;;6.41;100.00
7962;BME280;4026;43.652;24.906;2023-11-18T01:20:04;98370.38;;;6.41;100.00
7962;BME280;4026;43.652;24.906;2023-11-18T01:22:35;98370.38;;;6.41;100.00
7962;BME280;4026;43.652;24.906;2023-11-18T01:25:03;98369.28;;;6.32;100.00
7962;BME280;4026;43.652;24.906;2023-11-18T01:27:30;98369.38;;;6.31;100.00
7962;BME280;4026;43.652;24.906;2023-11-18T01:29:58;98380.22;;;6.33;100.00
7962;BME280;4026;43.652;24.906;2023-11-18T01:32:25;98391.13;;;6.35;100.00
7962;BME280;4026;43.652;24.906;2023-11-18T01:34:55;98377.63;;;6.34;100.00
7962;BME280;4026;43.652;24.906;2023-11-18T01:37:22;98374.25;;;6.21;100.00
7962;BME280;4026;43.652;24.906;2023-11-18T01:39:50;98351.09;;;6.26;100.00
7962;BME280;4026;43.652;24.906;2023-11-18T01:42:16;98342.38;;;6.30;100.00
7962;BME280;4026;43.652;24.906;2023-11-18T01:44:43;98335.66;;;6.29;100.00
7962;BME280;4026;43.652;24.906;2023-11-18T01:47:10;98326.50;;;6.39;100.00
7962;BME280;4026;43.652;24.906;2023-11-18T01:49:38;98340.22;;;6.37;100.00
7962;BME280;4026;43.652;24.906;2023-11-18T01:52:07;98347.22;;;6.33;100.00
7962;BME280;4026;43.652;24.906;2023-11-18T01:54:36;98349.88;;;6.31;100.00
7962;BME280;4026;43.652;24.906;2023-11-18T01:57:04;98365.00;;;6.33;100.00
7962;BME280;4026;43.652;24.906;2023-11-18T01:59:34;98379.31;;;6.34;100.00
7962;BME280;4026;43.652;24.906;2023-11-18T02:02:04;98393.53;;;6.24;100.00
7962;BME280;4026;43.652;24.906;2023-11-18T02:04:31;98402.88;;;6.23;100.00
7962;BME280;4026;43.652;24.906;2023-11-18T02:06:58;98409.97;;;6.18;100.00
7962;BME280;4026;43.652;24.906;2023-11-18T02:09:30;98400.84;;;6.16;100.00
7962;BME280;4026;43.652;24.906;2023-11-18T02:12:15;98397.91;;;6.22;100.00
7962;BME280;4026;43.652;24.906;2023-11-18T02:14:43;98393.75;;;6.21;100.00
7962;BME280;4026;43.652;24.906;2023-11-18T02:17:14;98381.53;;;6.13;100.00
7962;BME280;4026;43.652;24.906;2023-11-18T02:19:42;98379.81;;;6.13;100.00
7962;BME280;4026;43.652;24.906;2023-11-18T02:22:10;98375.88;;;6.09;100.00
7962;BME280;4026;43.652;24.906;2023-11-18T02:24:38;98370.59;;;6.12;100.00
7962;BME280;4026;43.652;24.906;2023-11-18T02:27:08;98370.59;;;6.12;100.00
7962;BME280;4026;43.652;24.906;2023-11-18T02:29:38;98370.59;;;6.12;100.00
7962;BME280;4026;43.652;24.906;2023-11-18T02:32:13;98374.03;;;6.11;100.00
7962;BME280;4026;43.652;24.906;2023-11-18T02:34:47;98380.94;;;6.09;100.00
7962;BME280;4026;43.652;24.906;2023-11-18T02:37:17;98386.00;;;6.09;100.00
7962;BME280;4026;43.652;24.906;2023-11-18T02:39:45;98381.75;;;6.10;100.00
7962;BME280;4026;43.652;24.906;2023-11-18T02:42:18;98382.88;;;6.06;100.00
7962;BME280;4026;43.652;24.906;2023-11-18T02:44:48;98382.34;;;6.13;100.00
7962;BME280;4026;43.652;24.906;2023-11-18T02:47:16;98387.81;;;6.07;100.00
7962;BME280;4026;43.652;24.906;2023-11-18T02:49:43;98401.44;;;6.06;100.00
7962;BME280;4026;43.652;24.906;2023-11-18T02:52:10;98391.69;;;6.00;100.00
7962;BME280;4026;43.652;24.906;2023-11-18T02:54:37;98399.00;;;6.05;100.00
7962;BME280;4026;43.652;24.906;2023-11-18T02:57:04;98397.78;;;5.98;100.00
7962;BME280;4026;43.652;24.906;2023-11-18T02:59:35;98400.38;;;5.96;100.00
7962;BME280;4026;43.652;24.906;2023-11-18T03:02:02;98391.28;;;5.94;100.00
7962;BME280;4026;43.652;24.906;2023-11-18T03:04:28;98401.88;;;5.86;100.00
7962;BME280;4026;43.652;24.906;2023-11-18T03:06:55;98397.41;;;5.77;100.00
7962;BME280;4026;43.652;24.906;2023-11-18T03:09:22;98393.22;;;5.76;100.00
7962;BME280;4026;43.652;24.906;2023-11-18T03:11:53;98388.53;;;5.70;100.00
7962;BME280;4026;43.652;24.906;2023-11-18T03:14:20;98392.91;;;5.67;100.00
7962;BME280;4026;43.652;24.906;2023-11-18T03:16:48;98395.75;;;5.76;100.00
7962;BME280;4026;43.652;24.906;2023-11-18T03:19:15;98404.56;;;5.70;100.00
7962;BME280;4026;43.652;24.906;2023-11-18T03:21:42;98402.13;;;5.68;100.00
7962;BME280;4026;43.652;24.906;2023-11-18T03:24:09;98413.59;;;5.61;100.00
7962;BME280;4026;43.652;24.906;2023-11-18T03:26:35;98403.72;;;5.57;100.00
7962;BME280;4026;43.652;24.906;2023-11-18T03:29:02;98404.53;;;5.57;100.00
7962;BME280;4026;43.652;24.906;2023-11-18T03:31:29;98409.38;;;5.48;100.00
7962;BME280;4026;43.652;24.906;2023-11-18T03:33:57;98409.38;;;5.48;100.00
7962;BME280;4026;43.652;24.906;2023-11-18T03:36:24;98393.91;;;5.38;100.00
7962;BME280;4026;43.652;24.906;2023-11-18T03:38:51;98394.09;;;5.35;100.00
7962;BME280;4026;43.652;24.906;2023-11-18T03:41:17;98397.34;;;5.37;100.00
7962;BME280;4026;43.652;24.906;2023-11-18T03:43:45;98387.88;;;5.26;100.00
7962;BME280;4026;43.652;24.906;2023-11-18T03:46:13;98384.34;;;5.29;100.00
7962;BME280;4026;43.652;24.906;2023-11-18T03:48:41;98396.50;;;5.24;100.00
7962;BME280;4026;43.652;24.906;2023-11-18T03:51:11;98398.31;;;5.21;100.00
7962;BME280;4026;43.652;24.906;2023-11-18T03:53:37;98400.50;;;5.13;100.00
7962;BME280;4026;43.652;24.906;2023-11-18T03:56:05;98407.56;;;5.08;100.00
7962;BME280;4026;43.652;24.906;2023-11-18T03:58:32;98400.56;;;5.12;100.00
7962;BME280;4026;43.652;24.906;2023-11-18T04:00:59;98392.47;;;5.07;100.00
7962;BME280;4026;43.652;24.906;2023-11-18T04:03:26;98381.59;;;5.05;100.00
7962;BME280;4026;43.652;24.906;2023-11-18T04:05:53;98379.13;;;5.03;100.00
7962;BME280;4026;43.652;24.906;2023-11-18T04:08:21;98364.50;;;4.94;100.00
7962;BME280;4026;43.652;24.906;2023-11-18T04:10:48;98357.63;;;4.96;100.00
7962;BME280;4026;43.652;24.906;2023-11-18T04:13:15;98369.56;;;4.94;100.00
7962;BME280;4026;43.652;24.906;2023-11-18T04:15:42;98365.59;;;4.90;100.00
7962;BME280;4026;43.652;24.906;2023-11-18T04:18:11;98371.75;;;4.86;100.00
7962;BME280;4026;43.652;24.906;2023-11-18T04:20:38;98379.81;;;4.78;100.00
7962;BME280;4026;43.652;24.906;2023-11-18T04:23:04;98367.78;;;4.67;100.00
7962;BME280;4026;43.652;24.906;2023-11-18T04:25:32;98371.44;;;4.63;100.00
7962;BME280;4026;43.652;24.906;2023-11-18T04:27:59;98371.63;;;4.60;100.00
7962;BME280;4026;43.652;24.906;2023-11-18T04:30:26;98363.66;;;4.52;100.00
7962;BME280;4026;43.652;24.906;2023-11-18T04:32:53;98370.50;;;4.50;100.00
7962;BME280;4026;43.652;24.906;2023-11-18T04:35:20;98354.25;;;4.40;100.00
7962;BME280;4026;43.652;24.906;2023-11-18T04:37:47;98355.50;;;4.47;100.00
7962;BME280;4026;43.652;24.906;2023-11-18T04:40:14;98363.72;;;4.36;100.00
7962;BME280;4026;43.652;24.906;2023-11-18T04:42:43;98373.41;;;4.29;100.00
7962;BME280;4026;43.652;24.906;2023-11-18T04:45:10;98356.16;;;4.22;100.00
7962;BME280;4026;43.652;24.906;2023-11-18T04:47:37;98359.47;;;4.22;100.00
7962;BME280;4026;43.652;24.906;2023-11-18T04:50:05;98352.06;;;4.19;100.00
7962;BME280;4026;43.652;24.906;2023-11-18T04:52:33;98355.84;;;4.12;100.00
7962;BME280;4026;43.652;24.906;2023-11-18T04:55:00;98369.41;;;4.11;100.00
7962;BME280;4026;43.652;24.906;2023-11-18T04:57:27;98361.88;;;4.09;100.00
7962;BME280;4026;43.652;24.906;2023-11-18T04:59:55;98360.91;;;4.12;100.00
7962;BME280;4026;43.652;24.906;2023-11-18T05:02:22;98363.72;;;4.07;100.00
7962;BME280;4026;43.652;24.906;2023-11-18T05:04:49;98359.66;;;4.05;100.00
7962;BME280;4026;43.652;24.906;2023-11-18T05:07:16;98371.47;;;4.04;100.00
7962;BME280;4026;43.652;24.906;2023-11-18T05:09:43;98356.38;;;4.03;100.00
7962;BME280;4026;43.652;24.906;2023-11-18T05:12:09;98354.94;;;3.99;100.00
7962;BME280;4026;43.652;24.906;2023-11-18T05:14:36;98359.34;;;3.95;100.00
7962;BME280;4026;43.652;24.906;2023-11-18T05:17:05;98355.91;;;3.96;100.00
7962;BME280;4026;43.652;24.906;2023-11-18T05:19:32;98357.09;;;3.91;100.00
7962;BME280;4026;43.652;24.906;2023-11-18T05:21:59;98360.34;;;3.93;100.00
7962;BME280;4026;43.652;24.906;2023-11-18T05:24:26;98355.44;;;3.90;100.00
7962;BME280;4026;43.652;24.906;2023-11-18T05:26:53;98358.06;;;3.88;100.00
7962;BME280;4026;43.652;24.906;2023-11-18T05:29:21;98360.84;;;3.83;100.00
7962;BME280;4026;43.652;24.906;2023-11-18T05:31:48;98354.72;;;3.88;100.00
7962;BME280;4026;43.652;24.906;2023-11-18T05:34:16;98350.22;;;3.93;100.00
7962;BME280;4026;43.652;24.906;2023-11-18T05:36:46;98356.34;;;3.89;100.00
7962;BME280;4026;43.652;24.906;2023-11-18T05:39:14;98355.44;;;3.90;100.00
7962;BME280;4026;43.652;24.906;2023-11-18T05:41:41;98362.31;;;3.88;100.00
7962;BME280;4026;43.652;24.906;2023-11-18T05:44:11;98367.53;;;3.84;100.00
7962;BME280;4026;43.652;24.906;2023-11-18T05:46:42;98347.50;;;3.81;100.00
7962;BME280;4026;43.652;24.906;2023-11-18T05:49:12;98361.19;;;3.77;100.00
7962;BME280;4026;43.652;24.906;2023-11-18T05:51:40;98368.78;;;3.77;100.00
7962;BME280;4026;43.652;24.906;2023-11-18T05:54:07;98377.84;;;3.81;100.00
7962;BME280;4026;43.652;24.906;2023-11-18T05:56:34;98380.25;;;3.83;100.00
7962;BME280;4026;43.652;24.906;2023-11-18T05:59:01;98383.34;;;3.88;100.00
7962;BME280;4026;43.652;24.906;2023-11-18T06:01:29;98387.16;;;3.95;100.00
7962;BME280;4026;43.652;24.906;2023-11-18T06:03:57;98389.59;;;3.97;100.00
7962;BME280;4026;43.652;24.906;2023-11-18T06:06:24;98397.19;;;3.97;100.00
7962;BME280;4026;43.652;24.906;2023-11-18T06:08:53;98386.09;;;3.99;100.00
7962;BME280;4026;43.652;24.906;2023-11-18T06:11:20;98384.44;;;3.98;100.00
7962;BME280;4026;43.652;24.906;2023-11-18T06:13:49;98375.81;;;4.02;100.00
7962;BME280;4026;43.652;24.906;2023-11-18T06:16:17;98382.47;;;4.03;100.00
7962;BME280;4026;43.652;24.906;2023-11-18T06:18:48;98381.50;;;4.06;100.00
7962;BME280;4026;43.652;24.906;2023-11-18T06:21:16;98400.75;;;4.08;100.00
7962;BME280;4026;43.652;24.906;2023-11-18T06:23:44;98402.47;;;4.08;100.00
7962;BME280;4026;43.652;24.906;2023-11-18T06:26:14;98414.03;;;4.12;100.00
7962;BME280;4026;43.652;24.906;2023-11-18T06:28:42;98408.09;;;4.13;100.00
7962;BME280;4026;43.652;24.906;2023-11-18T06:31:09;98398.59;;;4.17;100.00
7962;BME280;4026;43.652;24.906;2023-11-18T06:33:37;98395.44;;;4.13;100.00
7962;BME280;4026;43.652;24.906;2023-11-18T06:36:08;98395.09;;;4.19;100.00
7962;BME280;4026;43.652;24.906;2023-11-18T06:38:36;98394.88;;;4.08;100.00
7962;BME280;4026;43.652;24.906;2023-11-18T06:41:03;98401.94;;;4.17;100.00
7962;BME280;4026;43.652;24.906;2023-11-18T06:43:36;98397.78;;;4.16;100.00
7962;BME280;4026;43.652;24.906;2023-11-18T06:46:18;98394.00;;;4.23;100.00
7962;BME280;4026;43.652;24.906;2023-11-18T06:48:46;98388.69;;;4.28;100.00
7962;BME280;4026;43.652;24.906;2023-11-18T06:51:14;98387.31;;;4.22;100.00
7962;BME280;4026;43.652;24.906;2023-11-18T06:53:42;98381.53;;;4.35;100.00
7962;BME280;4026;43.652;24.906;2023-11-18T06:56:09;98383.78;;;4.39;100.00
7962;BME280;4026;43.652;24.906;2023-11-18T06:58:38;98382.97;;;4.39;100.00
7962;BME280;4026;43.652;24.906;2023-11-18T07:01:06;98377.75;;;4.42;100.00
7962;BME280;4026;43.652;24.906;2023-11-18T07:03:33;98381.00;;;4.44;100.00
7962;BME280;4026;43.652;24.906;2023-11-18T07:06:00;98389.16;;;4.49;100.00
7962;BME280;4026;43.652;24.906;2023-11-18T07:08:27;98376.19;;;4.53;100.00
7962;BME280;4026;43.652;24.906;2023-11-18T07:10:54;98370.88;;;4.58;100.00
7962;BME280;4026;43.652;24.906;2023-11-18T07:13:22;98370.16;;;4.56;100.00
7962;BME280;4026;43.652;24.906;2023-11-18T07:15:50;98359.66;;;4.62;100.00
7962;BME280;4026;43.652;24.906;2023-11-18T07:18:19;98377.91;;;4.67;100.00
7962;BME280;4026;43.652;24.906;2023-11-18T07:20:47;98390.75;;;4.79;100.00
7962;BME280;4026;43.652;24.906;2023-11-18T07:23:14;98396.00;;;4.75;100.00
7962;BME280;4026;43.652;24.906;2023-11-18T07:25:44;98405.59;;;4.85;100.00
7962;BME280;4026;43.652;24.906;2023-11-18T07:28:11;98393.66;;;4.87;100.00
7962;BME280;4026;43.652;24.906;2023-11-18T07:30:40;98386.94;;;4.86;100.00
7962;BME280;4026;43.652;24.906;2023-11-18T07:33:09;98377.53;;;4.88;100.00
7962;BME280;4026;43.652;24.906;2023-11-18T07:35:36;98380.06;;;4.88;100.00
7962;BME280;4026;43.652;24.906;2023-11-18T07:38:03;98388.47;;;4.88;100.00
7962;BME280;4026;43.652;24.906;2023-11-18T07:40:32;98389.66;;;4.97;100.00
7962;BME280;4026;43.652;24.906;2023-11-18T07:42:59;98384.06;;;4.92;100.00
7962;BME280;4026;43.652;24.906;2023-11-18T07:45:28;98382.78;;;4.99;100.00
7962;BME280;4026;43.652;24.906;2023-11-18T07:47:55;98373.91;;;5.06;100.00
7962;BME280;4026;43.652;24.906;2023-11-18T07:50:23;98369.91;;;5.16;100.00
7962;BME280;4026;43.652;24.906;2023-11-18T07:52:50;98378.22;;;5.18;100.00
7962;BME280;4026;43.652;24.906;2023-11-18T07:55:17;98368.28;;;5.15;100.00
7962;BME280;4026;43.652;24.906;2023-11-18T07:57:44;98358.56;;;5.22;100.00
7962;BME280;4026;43.652;24.906;2023-11-18T08:00:12;98351.25;;;5.17;100.00
7962;BME280;4026;43.652;24.906;2023-11-18T08:02:40;98351.97;;;5.19;100.00
7962;BME280;4026;43.652;24.906;2023-11-18T08:05:07;98337.09;;;5.28;100.00
7962;BME280;4026;43.652;24.906;2023-11-18T08:07:36;98333.84;;;5.26;100.00
7962;BME280;4026;43.652;24.906;2023-11-18T08:10:04;98356.19;;;5.33;100.00
7962;BME280;4026;43.652;24.906;2023-11-18T08:12:31;98354.38;;;5.35;100.00
7962;BME280;4026;43.652;24.906;2023-11-18T08:14:59;98347.47;;;5.37;100.00
7962;BME280;4026;43.652;24.906;2023-11-18T08:17:28;98363.69;;;5.35;100.00
7962;BME280;4026;43.652;24.906;2023-11-18T08:19:56;98371.63;;;5.43;100.00
7962;BME280;4026;43.652;24.906;2023-11-18T08:22:23;98378.34;;;5.44;100.00
7962;BME280;4026;43.652;24.906;2023-11-18T08:24:52;98378.75;;;5.51;100.00
7962;BME280;4026;43.652;24.906;2023-11-18T08:27:18;98371.00;;;5.39;100.00
7962;BME280;4026;43.652;24.906;2023-11-18T08:29:45;98382.34;;;5.34;100.00
7962;BME280;4026;43.652;24.906;2023-11-18T08:32:14;98386.03;;;5.42;100.00
7962;BME280;4026;43.652;24.906;2023-11-18T08:34:41;98392.50;;;5.47;100.00
7962;BME280;4026;43.652;24.906;2023-11-18T08:37:07;98391.50;;;5.49;100.00
7962;BME280;4026;43.652;24.906;2023-11-18T08:39:34;98390.47;;;5.39;100.00
7962;BME280;4026;43.652;24.906;2023-11-18T08:42:03;98392.66;;;5.31;100.00
7962;BME280;4026;43.652;24.906;2023-11-18T08:44:33;98404.59;;;5.29;100.00
7962;BME280;4026;43.652;24.906;2023-11-18T08:46:59;98373.19;;;5.31;100.00
7962;BME280;4026;43.652;24.906;2023-11-18T08:49:33;98403.00;;;5.28;100.00
7962;BME280;4026;43.652;24.906;2023-11-18T08:52:00;98383.63;;;5.27;100.00
7962;BME280;4026;43.652;24.906;2023-11-18T08:54:27;98376.25;;;5.36;100.00
7962;BME280;4026;43.652;24.906;2023-11-18T08:57:04;98376.53;;;5.32;100.00
7962;BME280;4026;43.652;24.906;2023-11-18T08:59:49;98380.34;;;5.39;100.00
7962;BME280;4026;43.652;24.906;2023-11-18T09:02:17;98374.88;;;5.45;100.00
7962;BME280;4026;43.652;24.906;2023-11-18T09:04:48;98382.69;;;5.42;100.00
7962;BME280;4026;43.652;24.906;2023-11-18T09:07:15;98371.63;;;5.43;100.00
7962;BME280;4026;43.652;24.906;2023-11-18T09:09:41;98365.97;;;5.52;100.00
7962;BME280;4026;43.652;24.906;2023-11-18T09:12:11;98356.88;;;5.62;100.00
7962;BME280;4026;43.652;24.906;2023-11-18T09:14:40;98352.72;;;5.61;100.00
7962;BME280;4026;43.652;24.906;2023-11-18T09:17:08;98359.53;;;5.74;100.00
7962;BME280;4026;43.652;24.906;2023-11-18T09:19:35;98348.59;;;5.86;100.00
7962;BME280;4026;43.652;24.906;2023-11-18T09:22:02;98347.59;;;5.88;100.00
7962;BME280;4026;43.652;24.906;2023-11-18T09:24:30;98349.84;;;5.93;100.00
7962;BME280;4026;43.652;24.906;2023-11-18T09:26:58;98342.56;;;6.01;100.00
7962;BME280;4026;43.652;24.906;2023-11-18T09:29:26;98328.56;;;6.08;100.00
7962;BME280;4026;43.652;24.906;2023-11-18T09:31:53;98327.66;;;6.09;100.00
7962;BME280;4026;43.652;24.906;2023-11-18T09:34:20;98339.50;;;6.22;100.00
7962;BME280;4026;43.652;24.906;2023-11-18T09:36:53;98341.66;;;6.28;100.00
7962;BME280;4026;43.652;24.906;2023-11-18T09:39:20;98343.97;;;6.31;100.00
7962;BME280;4026;43.652;24.906;2023-11-18T09:42:04;98344.69;;;6.33;100.00
7962;BME280;4026;43.652;24.906;2023-11-18T09:44:36;98349.06;;;6.31;100.00
7962;BME280;4026;43.652;24.906;2023-11-18T09:47:07;98351.72;;;6.29;100.00
7962;BME280;4026;43.652;24.906;2023-11-18T09:49:40;98364.50;;;6.28;100.00
7962;BME280;4026;43.652;24.906;2023-11-18T09:52:14;98353.13;;;6.21;100.00
7962;BME280;4026;43.652;24.906;2023-11-18T09:54:49;98347.84;;;6.24;100.00
7962;BME280;4026;43.652;24.906;2023-11-18T09:57:26;98338.63;;;6.23;100.00
7962;BME280;4026;43.652;24.906;2023-11-18T10:00:01;98340.13;;;6.12;100.00
7962;BME280;4026;43.652;24.906;2023-11-18T10:02:39;98338.50;;;6.11;100.00
7962;BME280;4026;43.652;24.906;2023-11-18T10:05:07;98345.63;;;6.06;100.00
7962;BME280;4026;43.652;24.906;2023-11-18T10:07:39;98350.88;;;6.03;100.00
7962;BME280;4026;43.652;24.906;2023-11-18T10:10:07;98354.22;;;6.17;100.00
7962;BME280;4026;43.652;24.906;2023-11-18T10:12:41;98376.91;;;6.20;100.00
7962;BME280;4026;43.652;24.906;2023-11-18T10:15:13;98368.34;;;6.21;100.00
7962;BME280;4026;43.652;24.906;2023-11-18T10:17:42;98352.31;;;6.20;100.00
7962;BME280;4026;43.652;24.906;2023-11-18T10:20:21;98355.78;;;6.32;100.00
7962;BME280;4026;43.652;24.906;2023-11-18T10:23:05;98355.47;;;6.24;100.00
7962;BME280;4026;43.652;24.906;2023-11-18T10:25:32;98367.56;;;6.20;100.00
7962;BME280;4026;43.652;24.906;2023-11-18T10:28:00;98357.59;;;6.17;100.00
7962;BME280;4026;43.652;24.906;2023-11-18T10:30:29;98355.56;;;6.09;100.00
7962;BME280;4026;43.652;24.906;2023-11-18T10:32:58;98369.25;;;6.07;100.00
7962;BME280;4026;43.652;24.906;2023-11-18T10:35:32;98368.53;;;6.05;100.00
7962;BME280;4026;43.652;24.906;2023-11-18T10:38:01;98373.94;;;6.00;100.00
7962;BME280;4026;43.652;24.906;2023-11-18T10:40:31;98375.66;;;6.00;100.00
7962;BME280;4026;43.652;24.906;2023-11-18T10:43:00;98376.47;;;6.00;100.00
7962;BME280;4026;43.652;24.906;2023-11-18T10:45:36;98367.25;;;5.99;100.00
7962;BME280;4026;43.652;24.906;2023-11-18T10:48:05;98370.66;;;5.98;100.00
7962;BME280;4026;43.652;24.906;2023-11-18T10:50:31;98371.97;;;5.91;100.00
7962;BME280;4026;43.652;24.906;2023-11-18T10:52:59;98366.72;;;5.94;100.00
7962;BME280;4026;43.652;24.906;2023-11-18T10:55:35;98374.84;;;5.99;100.00
7962;BME280;4026;43.652;24.906;2023-11-18T10:58:02;98374.66;;;6.02;100.00
7962;BME280;4026;43.652;24.906;2023-11-18T11:00:45;98374.84;;;5.99;100.00
7962;BME280;4026;43.652;24.906;2023-11-18T11:03:12;98366.41;;;5.99;100.00
7962;BME280;4026;43.652;24.906;2023-11-18T11:05:40;98372.19;;;6.01;100.00
7962;BME280;4026;43.652;24.906;2023-11-18T11:08:08;98381.53;;;6.00;100.00
7962;BME280;4026;43.652;24.906;2023-11-18T11:10:39;98365.00;;;6.07;100.00
7962;BME280;4026;43.652;24.906;2023-11-18T11:13:07;98374.66;;;6.02;100.00
7962;BME280;4026;43.652;24.906;2023-11-18T11:15:40;98355.34;;;6.12;100.00
7962;BME280;4026;43.652;24.906;2023-11-18T11:18:12;98364.59;;;6.13;100.00
7962;BME280;4026;43.652;24.906;2023-11-18T11:20:53;98362.44;;;6.07;100.00
7962;BME280;4026;43.652;24.906;2023-11-18T11:23:27;98374.03;;;6.11;100.00
7962;BME280;4026;43.652;24.906;2023-11-18T11:26:02;98369.16;;;6.08;100.00
7962;BME280;4026;43.652;24.906;2023-11-18T11:28:40;98380.13;;;6.09;100.00
7962;BME280;4026;43.652;24.906;2023-11-18T11:31:13;98380.53;;;6.03;100.00
7962;BME280;4026;43.652;24.906;2023-11-18T11:33:49;98388.03;;;6.04;100.00
7962;BME280;4026;43.652;24.906;2023-11-18T11:36:20;98373.00;;;6.01;100.00
7962;BME280;4026;43.652;24.906;2023-11-18T11:38:50;98373.81;;;6.02;100.00
7962;BME280;4026;43.652;24.906;2023-11-18T11:41:21;98366.72;;;5.94;100.00
7962;BME280;4026;43.652;24.906;2023-11-18T11:43:52;98377.03;;;5.91;100.00
7962;BME280;4026;43.652;24.906;2023-11-18T11:46:26;98366.06;;;5.90;100.00
7962;BME280;4026;43.652;24.906;2023-11-18T11:49:00;98370.50;;;5.87;100.00
7962;BME280;4026;43.652;24.906;2023-11-18T11:51:37;98369.63;;;5.88;100.00
7962;BME280;4026;43.652;24.906;2023-11-18T11:54:11;98368.28;;;5.82;100.00
7962;BME280;4026;43.652;24.906;2023-11-18T11:56:42;98372.34;;;5.85;100.00
7962;BME280;4026;43.652;24.906;2023-11-18T11:59:09;98372.56;;;5.82;100.00
7962;BME280;4026;43.652;24.906;2023-11-18T12:01:39;98389.06;;;5.75;100.00
7962;BME280;4026;43.652;24.906;2023-11-18T12:04:10;98384.00;;;5.75;100.00
7962;BME280;4026;43.652;24.906;2023-11-18T12:06:46;98393.13;;;5.77;100.00
7962;BME280;4026;43.652;24.906;2023-11-18T12:09:18;98395.25;;;5.71;100.00
7962;BME280;4026;43.652;24.906;2023-11-18T12:11:47;98398.47;;;5.73;100.00
7962;BME280;4026;43.652;24.906;2023-11-18T12:14:16;98395.06;;;5.74;100.00
7962;BME280;4026;43.652;24.906;2023-11-18T12:17:08;98394.66;;;5.80;100.00
7962;BME280;4026;43.652;24.906;2023-11-18T12:19:36;98404.09;;;5.78;100.00
7962;BME280;4026;43.652;24.906;2023-11-18T12:22:11;98397.41;;;5.77;100.00
7962;BME280;4026;43.652;24.906;2023-11-18T12:24:44;98399.94;;;5.77;100.00
7962;BME280;4026;43.652;24.906;2023-11-18T12:27:12;98390.78;;;5.74;100.00
7962;BME280;4026;43.652;24.906;2023-11-18T12:29:42;98393.72;;;5.68;100.00
7962;BME280;4026;43.652;24.906;2023-11-18T12:32:11;98396.88;;;5.72;100.00
7962;BME280;4026;43.652;24.906;2023-11-18T12:34:52;98385.09;;;5.71;100.00
7962;BME280;4026;43.652;24.906;2023-11-18T12:37:55;98394.94;;;5.75;100.00
7962;BME280;4026;43.652;24.906;2023-11-18T12:40:53;98399.94;;;5.77;100.00
7962;BME280;4026;43.652;24.906;2023-11-18T12:43:36;98392.72;;;5.71;100.00
7962;BME280;4026;43.652;24.906;2023-11-18T12:46:44;98396.13;;;5.70;100.00
7962;BME280;4026;43.652;24.906;2023-11-18T12:49:17;98397.78;;;5.71;100.00
7962;BME280;4026;43.652;24.906;2023-11-18T12:51:49;98401.94;;;5.72;100.00
7962;BME280;4026;43.652;24.906;2023-11-18T12:54:16;98398.47;;;5.73;100.00
7962;BME280;4026;43.652;24.906;2023-11-18T12:56:45;98401.75;;;5.75;100.00
7962;BME280;4026;43.652;24.906;2023-11-18T12:59:14;98406.63;;;5.78;100.00
7962;BME280;4026;43.652;24.906;2023-11-18T13:01:44;98397.78;;;5.71;100.00
7962;BME280;4026;43.652;24.906;2023-11-18T13:04:18;98410.28;;;5.74;100.00
7962;BME280;4026;43.652;24.906;2023-11-18T13:06:47;98406.81;;;5.75;100.00
7962;BME280;4026;43.652;24.906;2023-11-18T13:09:17;98397.47;;;5.75;100.00
7962;BME280;4026;43.652;24.906;2023-11-18T13:11:54;98401.22;;;5.70;100.00
7962;BME280;4026;43.652;24.906;2023-11-18T13:14:23;98400.81;;;5.76;100.00
7962;BME280;4026;43.652;24.906;2023-11-18T13:16:52;98416.34;;;5.71;100.00
7962;BME280;4026;43.652;24.906;2023-11-18T13:19:27;98418.78;;;5.73;100.00
7962;BME280;4026;43.652;24.906;2023-11-18T13:21:57;98417.34;;;5.68;100.00